createdAt,value
2022-09-20T00:02:12.946Z,54.63
2022-09-20T00:06:14.681Z,54.53
2022-09-20T00:10:12.016Z,53.00
2022-09-20T00:14:09.103Z,53.93
2022-09-20T00:18:06.127Z,53.69
2022-09-20T00:22:03.096Z,53.69
2022-09-20T00:26:05.040Z,54.46
2022-09-20T00:30:02.111Z,54.45
2022-09-20T00:34:17.893Z,54.49
2022-09-20T00:38:16.209Z,53.86
2022-09-20T00:42:15.263Z,53.56
2022-09-20T00:46:45.672Z,53.04
2022-09-20T00:51:14.877Z,53.50
2022-09-20T00:55:14.082Z,53.44
2022-09-20T00:59:35.028Z,52.89
2022-09-20T01:03:35.633Z,53.00
2022-09-20T01:07:34.395Z,53.46
2022-09-20T01:11:32.077Z,53.04
2022-09-20T01:15:33.222Z,53.68
2022-09-20T01:19:50.123Z,53.11
2022-09-20T01:24:03.910Z,53.11
2022-09-20T01:28:00.982Z,53.09
2022-09-20T01:32:04.221Z,52.95
2022-09-20T01:36:06.181Z,53.03
2022-09-20T01:40:31.871Z,52.50
2022-09-20T01:45:04.480Z,52.48
2022-09-20T01:49:10.721Z,53.00
2022-09-20T01:53:44.419Z,53.02
2022-09-20T01:58:09.053Z,52.91
2022-09-20T02:02:09.115Z,53.24
2022-09-20T02:06:39.416Z,53.96
2022-09-20T02:11:07.067Z,53.66
2022-09-20T02:15:42.490Z,53.77
2022-09-20T02:20:15.738Z,53.65
2022-09-20T02:24:53.479Z,53.06
2022-09-20T02:29:10.492Z,53.36
2022-09-20T02:33:28.520Z,52.80
2022-09-20T02:38:00.277Z,52.94
2022-09-20T02:42:06.116Z,53.05
2022-09-20T02:46:12.347Z,53.25
2022-09-20T02:50:45.727Z,53.22
2022-09-20T02:55:10.766Z,53.27
2022-09-20T02:59:38.896Z,52.36
2022-09-20T03:03:57.523Z,52.63
2022-09-20T03:08:32.141Z,52.89
2022-09-20T03:13:09.778Z,53.18
2022-09-20T03:17:47.478Z,52.29
2022-09-20T03:22:31.416Z,52.36
2022-09-20T03:27:05.752Z,51.65
2022-09-20T03:31:32.992Z,52.32
2022-09-20T03:35:41.327Z,51.72
2022-09-20T03:39:59.895Z,52.27
2022-09-20T03:43:56.800Z,53.16
2022-09-20T03:48:39.349Z,53.53
2022-09-20T03:52:57.909Z,52.99
2022-09-20T03:57:28.814Z,52.70
2022-09-20T04:02:03.821Z,53.74
2022-09-20T04:06:50.672Z,53.59
2022-09-20T04:11:06.160Z,53.72
2022-09-20T04:15:35.647Z,53.41
2022-09-20T04:19:52.188Z,53.82
2022-09-20T04:24:30.133Z,53.60
2022-09-20T04:28:59.352Z,54.26
2022-09-20T04:33:25.270Z,54.70
2022-09-20T04:37:33.892Z,54.25
2022-09-20T04:42:08.155Z,54.26
2022-09-20T04:46:44.150Z,54.05
2022-09-20T04:50:46.783Z,54.91
2022-09-20T04:55:57.085Z,54.19
2022-09-20T05:00:22.650Z,54.49
2022-09-20T05:05:09.986Z,54.93
2022-09-20T05:09:31.110Z,55.38
2022-09-20T05:14:03.344Z,55.49
2022-09-20T05:18:18.477Z,54.87
2022-09-20T05:22:54.357Z,54.01
2022-09-20T05:27:53.070Z,54.17
2022-09-20T05:32:03.268Z,54.17
2022-09-20T05:36:56.564Z,52.88
2022-09-20T05:41:39.233Z,53.67
2022-09-20T05:46:12.305Z,53.52
2022-09-20T05:50:55.380Z,54.10
2022-09-20T05:55:27.192Z,54.13
2022-09-20T05:59:40.293Z,54.23
2022-09-20T06:03:55.857Z,53.24
2022-09-20T06:08:20.697Z,52.80
2022-09-20T06:12:43.812Z,52.64
2022-09-20T06:16:47.021Z,52.65
2022-09-20T06:21:31.336Z,53.09
2022-09-20T06:25:48.539Z,52.22
2022-09-20T06:29:53.226Z,51.97
2022-09-20T06:34:10.029Z,52.08
2022-09-20T06:38:46.720Z,52.17
2022-09-20T06:42:44.718Z,52.55
2022-09-20T06:46:41.910Z,51.83
2022-09-20T06:50:39.962Z,51.06
2022-09-20T06:54:38.029Z,50.66
2022-09-20T06:58:35.042Z,51.58
2022-09-20T07:02:32.073Z,51.16
2022-09-20T07:06:29.332Z,50.53
2022-09-20T07:10:28.271Z,49.03
2022-09-20T07:14:26.482Z,48.38
2022-09-20T07:18:23.435Z,49.40
2022-09-20T07:22:21.576Z,50.37
2022-09-20T07:26:28.691Z,50.49
2022-09-20T07:30:26.070Z,48.75
2022-09-20T07:34:23.208Z,48.49
2022-09-20T07:38:21.951Z,48.88
2022-09-20T07:42:18.939Z,49.11
2022-09-20T07:46:15.920Z,49.48
2022-09-20T07:50:13.076Z,50.13
2022-09-20T07:54:10.144Z,49.93
2022-09-20T07:58:07.090Z,50.19
2022-09-20T08:02:07.097Z,50.11
2022-09-20T08:06:16.157Z,49.03
2022-09-20T08:10:13.094Z,49.80
2022-09-20T08:14:15.727Z,49.70
2022-09-20T08:18:13.475Z,49.66
2022-09-20T08:22:12.642Z,50.06
2022-09-20T08:26:13.367Z,50.84
2022-09-20T08:30:11.675Z,50.87
2022-09-20T08:34:11.654Z,49.33
2022-09-20T08:42:35.761Z,46.34
2022-09-20T08:46:43.665Z,45.36
2022-09-20T08:50:40.589Z,46.31
2022-09-20T08:54:37.749Z,44.47
2022-09-20T08:58:34.748Z,45.28
2022-09-20T09:02:34.501Z,44.77
2022-09-20T09:06:32.012Z,43.62
2022-09-20T09:10:42.596Z,44.35
2022-09-20T09:14:48.988Z,43.63
2022-09-20T09:18:49.487Z,43.13
2022-09-20T09:22:47.821Z,43.48
2022-09-20T09:26:45.074Z,42.76
2022-09-20T09:30:50.722Z,39.93
2022-09-20T09:34:48.083Z,40.47
2022-09-20T09:38:47.200Z,40.28
2022-09-20T09:43:00.306Z,40.99
2022-09-20T09:46:58.328Z,40.59
2022-09-20T09:51:17.900Z,39.52
2022-09-20T09:55:14.906Z,39.53
2022-09-20T09:59:46.937Z,38.35
2022-09-20T10:04:11.145Z,37.27
2022-09-20T10:08:26.202Z,37.81
2022-09-20T10:13:01.846Z,40.86
2022-09-20T10:17:06.281Z,41.44
2022-09-20T10:21:44.216Z,41.24
2022-09-20T10:26:25.633Z,36.85
2022-09-20T10:30:35.777Z,34.54
2022-09-20T10:35:11.685Z,34.45
2022-09-20T10:39:35.073Z,38.05
2022-09-20T10:44:10.474Z,42.93
2022-09-20T10:48:41.056Z,44.44
2022-09-20T10:52:56.200Z,45.74
2022-09-20T10:57:24.100Z,45.30
2022-09-20T11:01:55.048Z,43.83
2022-09-20T11:06:14.275Z,44.39
2022-09-20T11:10:25.977Z,45.75
2022-09-20T11:14:35.258Z,44.58
2022-09-20T11:19:03.126Z,49.65
2022-09-20T11:23:40.884Z,46.37
2022-09-20T11:27:49.254Z,43.60
2022-09-20T11:31:53.260Z,43.57
2022-09-20T11:35:56.062Z,43.95
2022-09-20T11:39:55.746Z,43.05
2022-09-20T11:43:57.438Z,43.73
2022-09-20T11:48:03.372Z,45.22
2022-09-20T11:52:33.659Z,45.92
2022-09-20T11:56:34.595Z,43.97
2022-09-20T12:00:38.078Z,44.59
2022-09-20T12:04:36.917Z,41.72
2022-09-20T12:08:41.788Z,37.51
2022-09-20T12:12:47.917Z,34.66
2022-09-20T12:16:48.722Z,33.67
2022-09-20T12:21:06.517Z,32.29
2022-09-20T12:25:38.611Z,30.84
2022-09-20T12:29:35.981Z,31.34
2022-09-20T12:34:16.009Z,31.25
2022-09-20T12:38:22.161Z,30.25
2022-09-20T12:42:19.028Z,31.78
2022-09-20T12:46:30.113Z,31.87
2022-09-20T12:50:46.832Z,29.45
2022-09-20T12:54:53.572Z,30.57
2022-09-20T12:58:56.530Z,30.58
2022-09-20T13:02:54.082Z,29.25
2022-09-20T13:07:33.395Z,28.03
2022-09-20T13:11:44.596Z,28.95
2022-09-20T13:15:51.774Z,27.36
2022-09-20T13:19:50.788Z,27.64
2022-09-20T13:23:54.304Z,28.79
2022-09-20T13:28:27.512Z,27.73
2022-09-20T13:32:26.560Z,28.52
2022-09-20T13:36:30.313Z,27.73
2022-09-20T13:40:39.319Z,27.33
2022-09-20T13:44:37.260Z,27.22
2022-09-20T13:48:34.825Z,28.41
2022-09-20T13:52:32.615Z,30.16
2022-09-20T13:56:31.677Z,31.42
2022-09-20T14:00:31.638Z,33.04
2022-09-20T14:04:31.448Z,37.56
2022-09-20T14:08:46.969Z,40.92
2022-09-20T14:12:46.669Z,42.68
2022-09-20T14:16:46.921Z,43.57
2022-09-20T14:20:45.929Z,44.10
2022-09-20T14:24:59.761Z,45.61
2022-09-20T14:28:56.843Z,45.11
2022-09-20T14:32:59.756Z,44.66
2022-09-20T14:37:20.762Z,46.62
2022-09-20T14:41:38.803Z,46.36
2022-09-20T14:45:39.911Z,47.93
2022-09-20T14:49:44.254Z,47.43
2022-09-20T14:53:41.273Z,48.56
2022-09-20T14:57:38.329Z,49.08
2022-09-20T15:01:41.182Z,48.31
2022-09-20T15:05:38.140Z,48.49
2022-09-20T15:09:35.412Z,47.45
2022-09-20T15:13:32.583Z,47.49
2022-09-20T15:17:29.593Z,47.71
2022-09-20T15:21:27.022Z,48.17
2022-09-20T15:25:24.654Z,48.29
2022-09-20T15:29:22.108Z,48.00
2022-09-20T15:33:21.545Z,47.60
2022-09-20T15:37:18.512Z,47.14
2022-09-20T15:41:15.472Z,46.86
2022-09-20T15:45:12.630Z,47.25
2022-09-20T15:49:12.380Z,47.51
2022-09-20T15:53:09.608Z,47.59
2022-09-20T15:57:06.583Z,48.28
2022-09-20T16:01:08.688Z,48.01
2022-09-20T16:05:06.701Z,47.54
2022-09-20T16:09:04.640Z,47.79
2022-09-20T16:13:01.615Z,47.92
2022-09-20T16:16:58.598Z,47.30
2022-09-20T16:20:55.563Z,47.22
2022-09-20T16:24:52.522Z,47.98
2022-09-20T16:28:49.645Z,48.36
2022-09-20T16:32:47.276Z,48.97
2022-09-20T16:36:45.522Z,48.66
2022-09-20T16:40:42.835Z,48.16
2022-09-20T16:44:42.925Z,48.58
2022-09-20T16:48:39.937Z,49.72
2022-09-20T16:52:37.851Z,50.53
2022-09-20T16:56:35.682Z,52.44
2022-09-20T17:00:33.863Z,52.59
2022-09-20T17:04:30.846Z,52.78
2022-09-20T17:08:28.210Z,53.44
2022-09-20T17:12:29.034Z,53.94
2022-09-20T17:16:35.280Z,54.34
2022-09-20T17:20:34.095Z,53.84
2022-09-20T17:24:31.037Z,53.68
2022-09-20T17:28:28.006Z,54.10
2022-09-20T17:32:24.972Z,54.79
2022-09-20T17:36:22.096Z,55.07
2022-09-20T17:40:19.201Z,55.87
2022-09-20T17:44:17.012Z,56.41
2022-09-20T17:48:15.037Z,56.24
2022-09-20T17:52:12.018Z,56.08
2022-09-20T17:56:13.379Z,55.97
2022-09-20T18:00:11.311Z,56.00
2022-09-20T18:04:10.882Z,55.73
2022-09-20T18:08:07.827Z,55.80
2022-09-20T18:12:05.372Z,55.89
2022-09-20T18:16:04.342Z,55.93
2022-09-20T18:20:01.978Z,55.48
2022-09-20T18:23:59.188Z,56.13
2022-09-20T18:27:56.602Z,56.21
2022-09-20T18:31:54.611Z,56.28
2022-09-20T18:35:51.585Z,55.82
2022-09-20T18:39:49.665Z,55.34
2022-09-20T18:43:47.167Z,55.58
2022-09-20T18:47:44.810Z,55.98
2022-09-20T18:51:43.758Z,55.87
2022-09-20T18:55:41.624Z,55.68
2022-09-20T18:59:40.249Z,55.61
2022-09-20T19:04:07.896Z,54.77
2022-09-20T19:08:40.834Z,55.14
2022-09-20T19:13:05.226Z,55.03
2022-09-20T19:17:02.640Z,55.97
2022-09-20T19:21:29.497Z,55.98
2022-09-20T19:25:45.398Z,55.78
2022-09-20T19:29:42.936Z,55.77
2022-09-20T19:33:40.274Z,55.34
2022-09-20T19:38:15.623Z,55.81
2022-09-20T19:42:36.172Z,55.66
2022-09-20T19:46:47.590Z,55.43
2022-09-20T19:50:50.124Z,55.16
2022-09-20T19:54:47.961Z,56.03
2022-09-20T19:58:45.474Z,55.76
2022-09-20T20:02:44.781Z,56.04
2022-09-20T20:06:50.171Z,56.45
2022-09-20T20:11:34.460Z,56.90
2022-09-20T20:16:01.003Z,55.86
2022-09-20T20:20:44.324Z,55.96
2022-09-20T20:24:52.512Z,55.90
2022-09-20T20:28:51.807Z,55.80
2022-09-20T20:32:48.740Z,55.67
2022-09-20T20:36:45.708Z,55.82
2022-09-20T20:40:42.660Z,56.00
2022-09-20T20:44:40.153Z,56.32
2022-09-20T20:48:39.291Z,56.54
2022-09-20T20:52:36.250Z,56.73
2022-09-20T20:56:33.205Z,57.05
2022-09-20T21:00:30.975Z,57.27
2022-09-20T21:04:28.621Z,56.86
2022-09-20T21:08:35.449Z,56.91
2022-09-20T21:12:32.374Z,56.41
2022-09-20T21:16:39.639Z,56.53
2022-09-20T21:20:38.634Z,56.82
2022-09-20T21:24:35.637Z,57.30
2022-09-20T21:28:33.052Z,57.56
2022-09-20T21:32:30.388Z,57.45
2022-09-20T21:36:30.928Z,57.67
2022-09-20T21:40:27.904Z,57.41
2022-09-20T21:44:25.158Z,57.13
2022-09-20T21:48:22.119Z,58.01
2022-09-20T21:52:19.091Z,57.93
2022-09-20T21:56:17.678Z,57.48
2022-09-20T22:00:15.750Z,57.05
2022-09-20T22:04:12.962Z,57.07
2022-09-20T22:08:09.871Z,57.68
2022-09-20T22:12:06.930Z,57.82
2022-09-20T22:16:14.747Z,57.52
2022-09-20T22:20:11.711Z,57.86
2022-09-20T22:24:11.176Z,57.16
2022-09-20T22:28:08.147Z,56.82
2022-09-20T22:32:05.352Z,57.51
2022-09-20T22:36:02.680Z,57.41
2022-09-20T22:39:59.898Z,57.39
2022-09-20T22:43:56.994Z,57.18
2022-09-20T22:47:53.952Z,56.99
2022-09-20T22:51:50.909Z,56.93
2022-09-20T22:55:47.828Z,56.59
2022-09-20T22:59:44.821Z,56.49
2022-09-20T23:03:45.437Z,56.44
2022-09-20T23:07:42.417Z,56.72
2022-09-20T23:11:42.860Z,56.11
2022-09-20T23:15:39.792Z,56.39
2022-09-20T23:19:36.760Z,55.99
2022-09-20T23:23:36.711Z,56.29
2022-09-20T23:27:33.776Z,56.32
2022-09-20T23:31:34.695Z,56.29
2022-09-20T23:35:31.643Z,56.23
2022-09-20T23:39:28.614Z,56.27
2022-09-20T23:43:25.578Z,56.38
2022-09-20T23:47:22.704Z,56.57
2022-09-20T23:51:23.843Z,56.04
2022-09-20T23:55:20.853Z,56.79
2022-09-20T23:59:17.867Z,56.83
